Terminal Aerodrome Forecast
Issued by NWS Des Moines, IA

Home | Current Version | Previous Version | Text Only | Print | Product List | Glossary On
Versions: 1 2 3 4 5 6 7 8 9 10 11 12 13 14 15 16 17 18 19 20 21 22 23 24 25 26 27 28 29 30 31 32 33 34 35 36
000
FTUS43 KDMX 040201 AAA
TAFDSM
TAF AMD
KDSM 040201Z 0402/0424 11004KT P6SM -RA OVC025
     FM040500 14008KT 4SM -RA OVC009
     FM040700 15008KT 2SM -RASN OVC003
     FM041200 19008KT 2SM -RASN OVC003
     FM041400 20007KT P6SM -RA OVC004
     FM041700 24009KT P6SM BKN015
     FM042000 27009KT P6SM SCT200=

USA.gov is the U.S. government's official web portal to all federal, state and local government web resources and services.